createdAt,value
2022-11-23T00:01:39.241Z,5.18
2022-11-23T00:04:08.700Z,4.43
2022-11-23T00:06:36.812Z,5.50
2022-11-23T00:09:04.092Z,5.60
2022-11-23T00:11:30.977Z,8.07
2022-11-23T00:13:57.565Z,3.50
2022-11-23T00:16:28.955Z,2.80
2022-11-23T00:18:58.051Z,7.07
2022-11-23T00:21:27.350Z,2.13
2022-11-23T00:23:54.221Z,3.80
2022-11-23T00:26:20.993Z,3.20
2022-11-23T00:28:48.031Z,2.60
2022-11-23T00:31:17.745Z,3.67
2022-11-23T00:33:52.535Z,4.15
2022-11-23T00:36:20.496Z,5.18
2022-11-23T00:38:48.723Z,7.63
2022-11-23T00:41:21.442Z,5.40
2022-11-23T00:43:48.267Z,4.47
2022-11-23T00:46:20.739Z,5.35
2022-11-23T00:48:49.554Z,6.95
2022-11-23T00:51:19.367Z,5.53
2022-11-23T00:53:46.429Z,6.00
2022-11-23T00:56:13.716Z,5.25
2022-11-23T00:58:41.130Z,6.10
2022-11-23T01:01:11.392Z,5.20
2022-11-23T01:03:41.008Z,12.45
2022-11-23T01:06:10.764Z,7.13
2022-11-23T01:08:38.052Z,7.05
2022-11-23T01:11:07.806Z,6.32
2022-11-23T01:13:36.837Z,6.40
2022-11-23T01:16:05.263Z,8.75
2022-11-23T01:18:31.852Z,6.15
2022-11-23T01:21:01.384Z,5.20
2022-11-23T01:23:31.296Z,5.72
2022-11-23T01:25:57.930Z,5.38
2022-11-23T01:28:24.567Z,8.20
2022-11-23T01:30:51.134Z,4.35
2022-11-23T01:33:17.657Z,7.50
2022-11-23T01:35:46.783Z,4.97
2022-11-23T01:38:17.994Z,6.03
2022-11-23T01:40:45.095Z,10.40
2022-11-23T01:43:17.395Z,6.18
2022-11-23T01:45:53.050Z,6.95
2022-11-23T01:48:25.090Z,9.73
2022-11-23T01:50:53.087Z,3.58
2022-11-23T01:53:20.856Z,9.10
2022-11-23T01:55:50.241Z,5.90
2022-11-23T01:58:20.507Z,6.88
2022-11-23T02:00:47.746Z,6.70
2022-11-23T02:03:18.543Z,5.15
2022-11-23T02:05:48.506Z,9.27
2022-11-23T02:08:20.040Z,5.57
2022-11-23T02:10:47.807Z,7.45
2022-11-23T02:13:15.295Z,6.50
2022-11-23T02:15:41.971Z,7.53
2022-11-23T02:18:17.671Z,8.10
2022-11-23T02:20:45.989Z,5.18
2022-11-23T02:23:30.593Z,7.35
2022-11-23T02:26:01.591Z,11.13
2022-11-23T02:28:49.500Z,11.75
2022-11-23T02:31:16.089Z,6.00
2022-11-23T02:33:44.767Z,7.70
2022-11-23T02:36:33.717Z,9.25
2022-11-23T02:39:15.609Z,6.07
2022-11-23T02:41:49.185Z,8.65
2022-11-23T02:44:26.449Z,7.03
2022-11-23T02:46:53.863Z,8.95
2022-11-23T02:49:20.617Z,6.03
2022-11-23T02:51:47.776Z,5.63
2022-11-23T02:54:14.317Z,5.68
2022-11-23T02:56:41.446Z,10.35
2022-11-23T02:59:08.950Z,7.45
2022-11-23T03:01:36.027Z,10.40
2022-11-23T03:04:02.707Z,6.90
2022-11-23T03:06:29.314Z,9.13
2022-11-23T03:08:56.483Z,9.32
2022-11-23T03:11:23.370Z,6.60
2022-11-23T03:13:50.296Z,7.15
2022-11-23T03:16:20.344Z,7.28
2022-11-23T03:18:47.889Z,7.70
2022-11-23T03:21:14.757Z,7.40
2022-11-23T03:23:41.406Z,9.80
2022-11-23T03:26:13.131Z,6.78
2022-11-23T03:28:49.816Z,10.93
2022-11-23T03:31:16.805Z,5.55
2022-11-23T03:33:43.587Z,6.97
2022-11-23T03:36:10.348Z,6.50
2022-11-23T03:38:47.963Z,7.97
2022-11-23T03:44:04.456Z,7.13
2022-11-23T03:46:31.055Z,8.45
2022-11-23T03:48:57.753Z,5.13
2022-11-23T03:51:24.367Z,6.00
2022-11-23T03:53:51.005Z,6.43
2022-11-23T03:56:17.789Z,7.20
2022-11-23T03:58:46.363Z,7.38
2022-11-23T04:01:14.280Z,4.07
2022-11-23T04:03:43.626Z,6.32
2022-11-23T04:06:17.376Z,9.30
2022-11-23T04:09:03.453Z,6.28
2022-11-23T04:11:42.908Z,8.68
2022-11-23T04:14:09.631Z,9.27
2022-11-23T04:16:36.840Z,6.32
2022-11-23T04:19:04.585Z,3.85
2022-11-23T04:21:31.291Z,5.53
2022-11-23T04:23:58.588Z,7.68
2022-11-23T04:26:26.424Z,6.18
2022-11-23T04:28:54.096Z,6.13
2022-11-23T04:31:20.951Z,8.82
2022-11-23T04:33:58.336Z,7.47
2022-11-23T04:36:27.305Z,9.38
2022-11-23T04:38:54.154Z,5.93
2022-11-23T04:41:30.212Z,5.25
2022-11-23T04:43:57.818Z,6.63
2022-11-23T04:46:25.115Z,3.65
2022-11-23T04:48:51.810Z,5.65
2022-11-23T04:51:18.485Z,6.70
2022-11-23T04:53:45.829Z,8.18
2022-11-23T04:56:13.710Z,3.67
2022-11-23T04:58:42.600Z,6.25
2022-11-23T05:01:09.474Z,6.70
2022-11-23T05:03:47.142Z,6.70
2022-11-23T05:06:13.886Z,7.22
2022-11-23T05:08:42.501Z,7.72
2022-11-23T05:11:27.189Z,3.88
2022-11-23T05:13:56.188Z,2.45
2022-11-23T05:16:22.897Z,7.60
2022-11-23T05:18:49.544Z,5.32
2022-11-23T05:21:16.583Z,2.97
2022-11-23T05:23:43.660Z,6.95
2022-11-23T05:26:10.465Z,4.18
2022-11-23T05:28:40.976Z,2.78
2022-11-23T05:31:11.549Z,5.18
2022-11-23T05:33:38.561Z,5.22
2022-11-23T05:36:08.013Z,6.13
2022-11-23T05:38:37.786Z,6.07
2022-11-23T05:41:10.466Z,5.53
2022-11-23T05:43:40.595Z,3.92
2022-11-23T05:46:09.975Z,4.28
2022-11-23T05:48:38.221Z,3.17
2022-11-23T05:51:09.810Z,5.25
2022-11-23T05:53:41.561Z,4.60
2022-11-23T05:56:15.733Z,4.35
2022-11-23T05:58:56.650Z,5.40
2022-11-23T06:01:24.399Z,7.57
2022-11-23T06:03:53.502Z,9.10
2022-11-23T06:06:20.609Z,5.00
2022-11-23T06:08:49.181Z,10.27
2022-11-23T06:11:17.160Z,7.80
2022-11-23T06:13:47.833Z,4.15
2022-11-23T06:16:15.413Z,9.25
2022-11-23T06:18:53.729Z,4.57
2022-11-23T06:21:20.894Z,2.95
2022-11-23T06:23:47.831Z,4.35
2022-11-23T06:26:15.423Z,9.38
2022-11-23T06:28:42.731Z,7.07
2022-11-23T06:31:10.329Z,8.60
2022-11-23T06:33:37.747Z,9.93
2022-11-23T06:36:04.600Z,5.38
2022-11-23T06:38:37.612Z,6.47
2022-11-23T06:41:10.661Z,4.82
2022-11-23T06:43:37.256Z,11.73
2022-11-23T06:46:06.454Z,10.75
2022-11-23T06:48:36.843Z,6.07
2022-11-23T06:51:04.436Z,6.00
2022-11-23T06:53:31.532Z,5.80
2022-11-23T06:56:02.793Z,8.60
2022-11-23T06:58:31.543Z,5.30
2022-11-23T07:01:02.087Z,10.85
2022-11-23T07:03:33.345Z,8.15
2022-11-23T07:06:06.966Z,6.60
2022-11-23T07:08:35.460Z,7.32
2022-11-23T07:11:15.272Z,6.03
2022-11-23T07:13:41.857Z,7.70
2022-11-23T07:16:08.562Z,7.70
2022-11-23T07:18:36.448Z,11.98
2022-11-23T07:21:03.672Z,6.53
2022-11-23T07:23:30.312Z,6.07
2022-11-23T07:25:56.937Z,14.77
2022-11-23T07:28:23.479Z,5.78
2022-11-23T07:30:51.564Z,5.25
2022-11-23T07:35:48.318Z,3.90
2022-11-23T07:38:14.928Z,8.93
2022-11-23T07:40:42.873Z,6.50
2022-11-23T07:43:20.938Z,8.32
2022-11-23T07:45:49.715Z,7.40
2022-11-23T07:48:17.028Z,8.32
2022-11-23T07:50:43.709Z,10.20
2022-11-23T07:53:10.646Z,5.35
2022-11-23T07:55:37.245Z,4.65
2022-11-23T07:58:04.919Z,9.70
2022-11-23T08:00:31.634Z,8.63
2022-11-23T08:03:26.133Z,14.55
2022-11-23T08:05:45.573Z,8.90
2022-11-23T08:08:12.336Z,8.77
2022-11-23T08:10:44.199Z,8.30
2022-11-23T08:13:11.934Z,11.50
2022-11-23T08:15:38.488Z,6.32
2022-11-23T08:18:05.707Z,9.52
2022-11-23T08:20:33.427Z,7.43
2022-11-23T08:23:00.052Z,6.80
2022-11-23T08:25:28.322Z,3.92
2022-11-23T08:27:59.607Z,6.55
2022-11-23T08:30:27.405Z,5.90
2022-11-23T08:32:54.259Z,9.98
2022-11-23T08:35:21.550Z,5.95
2022-11-23T08:37:48.216Z,6.50
2022-11-23T08:40:17.405Z,5.85
2022-11-23T08:42:47.220Z,10.18
2022-11-23T08:45:13.801Z,6.72
2022-11-23T08:47:40.435Z,9.40
2022-11-23T08:50:16.802Z,4.35
2022-11-23T08:52:46.348Z,12.38
2022-11-23T08:55:12.987Z,6.78
2022-11-23T08:57:40.308Z,5.85
2022-11-23T09:00:07.597Z,7.65
2022-11-23T09:02:34.174Z,6.00
2022-11-23T09:05:00.789Z,10.90
2022-11-23T09:07:27.653Z,4.32
2022-11-23T09:09:54.229Z,6.30
2022-11-23T09:12:20.778Z,6.30
2022-11-23T09:14:47.304Z,5.53
2022-11-23T09:17:13.911Z,7.05
2022-11-23T09:19:40.487Z,9.75
2022-11-23T09:22:07.199Z,8.13
2022-11-23T09:24:34.251Z,11.98
2022-11-23T09:27:01.005Z,6.38
2022-11-23T09:29:28.423Z,10.98
2022-11-23T09:31:55.161Z,8.32
2022-11-23T09:34:22.968Z,7.80
2022-11-23T09:36:49.578Z,7.22
2022-11-23T09:39:16.421Z,7.10
2022-11-23T09:41:52.014Z,5.00
2022-11-23T09:44:43.143Z,9.48
2022-11-23T09:47:48.469Z,5.75
2022-11-23T09:50:27.228Z,9.80
2022-11-23T09:52:54.234Z,5.03
2022-11-23T09:55:41.882Z,8.27
2022-11-23T09:58:14.824Z,4.18
2022-11-23T10:00:51.055Z,9.52
2022-11-23T10:03:18.925Z,5.65
2022-11-23T10:05:56.541Z,6.95
2022-11-23T10:08:52.452Z,6.15
2022-11-23T10:11:35.132Z,6.13
2022-11-23T10:14:32.738Z,9.18
2022-11-23T10:17:20.119Z,8.30
2022-11-23T10:20:20.792Z,8.27
2022-11-23T10:22:57.623Z,6.60
2022-11-23T10:25:25.577Z,8.27
2022-11-23T10:28:00.294Z,9.82
2022-11-23T10:30:26.901Z,10.95
2022-11-23T10:33:21.835Z,6.28
2022-11-23T10:35:48.403Z,7.80
2022-11-23T10:38:20.059Z,7.07
2022-11-23T10:41:03.266Z,9.25
2022-11-23T10:43:36.922Z,9.55
2022-11-23T10:46:23.683Z,9.05
2022-11-23T10:48:52.151Z,9.30
2022-11-23T10:51:26.528Z,7.28
2022-11-23T10:54:00.740Z,6.22
2022-11-23T10:56:32.414Z,5.95
2022-11-23T10:58:59.486Z,7.22
2022-11-23T11:01:29.739Z,9.23
2022-11-23T11:04:03.865Z,10.82
2022-11-23T11:06:34.652Z,10.95
2022-11-23T11:09:08.353Z,6.32
2022-11-23T11:11:46.806Z,12.15
2022-11-23T11:14:19.531Z,7.57
2022-11-23T11:16:53.468Z,10.30
2022-11-23T11:19:26.990Z,9.13
2022-11-23T11:21:54.188Z,10.57
2022-11-23T11:24:33.139Z,9.88
2022-11-23T11:27:03.710Z,9.05
2022-11-23T11:29:39.813Z,6.68
2022-11-23T11:32:32.884Z,8.15
2022-11-23T11:35:08.465Z,7.32
2022-11-23T11:37:47.065Z,12.93
2022-11-23T11:40:26.363Z,10.23
2022-11-23T11:43:11.646Z,11.75
2022-11-23T11:45:59.677Z,12.65
2022-11-23T11:48:42.353Z,10.38
2022-11-23T11:51:18.561Z,11.35
2022-11-23T11:53:45.600Z,13.55
2022-11-23T11:56:22.700Z,10.55
2022-11-23T11:58:59.465Z,9.95
2022-11-23T12:01:36.010Z,8.43
2022-11-23T12:04:12.833Z,10.35
2022-11-23T12:06:46.550Z,7.72
2022-11-23T12:09:18.844Z,10.13
2022-11-23T12:11:45.886Z,11.20
2022-11-23T12:14:14.721Z,9.30
2022-11-23T12:16:47.718Z,9.27
2022-11-23T12:19:26.917Z,10.98
2022-11-23T12:22:03.648Z,12.40
2022-11-23T12:24:50.792Z,11.95
2022-11-23T12:27:56.618Z,12.18
2022-11-23T12:30:27.478Z,10.07
2022-11-23T12:33:06.854Z,11.43
2022-11-23T12:38:36.729Z,13.85
2022-11-23T12:41:23.841Z,9.75
2022-11-23T12:44:16.458Z,8.32
2022-11-23T12:46:48.521Z,8.48
2022-11-23T12:49:40.177Z,9.82
2022-11-23T12:52:31.909Z,8.52
2022-11-23T12:55:06.389Z,9.13
2022-11-23T12:57:48.415Z,7.85
2022-11-23T13:00:19.557Z,9.48
2022-11-23T13:02:49.433Z,8.73
2022-11-23T13:05:37.856Z,11.55
2022-11-23T13:08:39.255Z,8.70
2022-11-23T13:11:05.932Z,11.73
2022-11-23T13:13:35.779Z,7.57
2022-11-23T13:16:23.114Z,8.52
2022-11-23T13:19:07.031Z,10.05
2022-11-23T13:21:47.106Z,9.73
2022-11-23T13:24:30.746Z,10.23
2022-11-23T13:27:16.763Z,11.32
2022-11-23T13:29:59.860Z,11.25
2022-11-23T13:32:40.315Z,9.27
2022-11-23T13:35:17.215Z,9.43
2022-11-23T13:37:56.808Z,12.65
2022-11-23T13:40:35.199Z,11.27
2022-11-23T13:43:17.625Z,11.68
2022-11-23T13:45:45.480Z,15.95
2022-11-23T13:48:41.370Z,19.17
2022-11-23T13:51:02.432Z,30.02
2022-11-23T13:53:36.723Z,16.80
2022-11-23T13:56:34.224Z,18.77
2022-11-23T13:59:22.955Z,12.68
2022-11-23T14:02:00.098Z,11.40
2022-11-23T14:04:29.156Z,8.60
2022-11-23T14:06:58.949Z,11.55
2022-11-23T14:09:33.872Z,15.82
2022-11-23T14:12:03.298Z,7.45
2022-11-23T14:14:47.075Z,13.27
2022-11-23T14:17:38.567Z,6.57
2022-11-23T14:20:29.919Z,11.30
2022-11-23T14:23:02.446Z,10.80
2022-11-23T14:26:06.516Z,15.85
2022-11-23T14:29:05.843Z,13.45
2022-11-23T14:31:50.774Z,11.98
2022-11-23T14:34:47.036Z,8.85
2022-11-23T14:37:51.537Z,10.85
2022-11-23T14:40:32.222Z,12.07
2022-11-23T14:43:00.788Z,9.82
2022-11-23T14:45:32.127Z,12.73
2022-11-23T14:48:22.768Z,14.05
2022-11-23T14:51:11.267Z,7.80
2022-11-23T14:53:57.189Z,5.85
2022-11-23T14:56:35.270Z,5.30
2022-11-23T14:59:09.184Z,10.52
2022-11-23T15:01:37.300Z,10.00
2022-11-23T15:04:10.671Z,6.10
2022-11-23T15:06:45.598Z,7.78
2022-11-23T15:09:31.179Z,6.15
2022-11-23T15:12:08.340Z,12.55
2022-11-23T15:14:35.712Z,8.05
2022-11-23T15:17:17.075Z,8.50
2022-11-23T15:19:43.823Z,7.13
2022-11-23T15:22:16.335Z,13.23
2022-11-23T15:24:44.474Z,7.45
2022-11-23T15:27:16.935Z,10.38
2022-11-23T15:29:51.986Z,8.15
2022-11-23T15:32:31.329Z,6.47
2022-11-23T15:35:04.591Z,8.27
2022-11-23T15:37:33.057Z,14.30
2022-11-23T15:40:00.862Z,10.98
2022-11-23T15:42:28.846Z,9.50
2022-11-23T15:44:56.029Z,5.15
2022-11-23T15:47:27.721Z,9.85
2022-11-23T15:50:02.205Z,9.32
2022-11-23T15:52:35.815Z,8.30
2022-11-23T15:55:09.281Z,17.95
2022-11-23T15:57:38.059Z,9.00
2022-11-23T16:00:06.170Z,7.95
2022-11-23T16:02:38.694Z,11.52
2022-11-23T16:05:13.781Z,9.95
2022-11-23T16:07:58.518Z,11.50
2022-11-23T16:10:37.580Z,7.13
2022-11-23T16:13:06.126Z,6.20
2022-11-23T16:15:44.406Z,15.40
2022-11-23T16:18:13.957Z,12.07
2022-11-23T16:21:02.372Z,9.15
2022-11-23T16:23:51.182Z,7.68
2022-11-23T16:26:29.201Z,9.82
2022-11-23T16:28:57.895Z,6.07
2022-11-23T16:31:35.481Z,9.77
2022-11-23T16:34:02.210Z,7.57
2022-11-23T16:36:29.187Z,5.43
2022-11-23T16:38:57.641Z,9.57
2022-11-23T16:41:26.296Z,6.25
2022-11-23T16:43:54.143Z,11.05
2022-11-23T16:46:21.124Z,6.85
2022-11-23T16:48:47.959Z,5.93
2022-11-23T16:51:14.749Z,11.48
2022-11-23T16:54:11.947Z,8.23
2022-11-23T16:56:31.244Z,9.50
2022-11-23T16:58:57.982Z,11.50
2022-11-23T17:01:27.914Z,8.90
2022-11-23T17:03:54.528Z,9.93
2022-11-23T17:06:24.063Z,6.60
2022-11-23T17:08:58.481Z,9.07
2022-11-23T17:11:27.660Z,8.90
2022-11-23T17:13:55.902Z,13.13
2022-11-23T17:16:25.618Z,11.85
2022-11-23T17:18:52.835Z,13.55
2022-11-23T17:21:19.776Z,7.13
2022-11-23T17:23:46.958Z,8.90
2022-11-23T17:26:30.625Z,10.75
2022-11-23T17:28:59.510Z,13.48
2022-11-23T17:31:26.249Z,9.07
2022-11-23T17:33:52.897Z,12.38
2022-11-23T17:36:19.730Z,13.73
2022-11-23T17:38:49.335Z,8.98
2022-11-23T17:43:42.533Z,14.27
2022-11-23T17:46:21.684Z,16.05
2022-11-23T17:48:55.472Z,11.00
2022-11-23T17:51:22.602Z,14.60
2022-11-23T17:53:49.436Z,16.83
2022-11-23T17:56:21.252Z,19.20
2022-11-23T17:58:48.146Z,18.98
2022-11-23T18:01:16.840Z,17.75
2022-11-23T18:03:44.704Z,15.50
2022-11-23T18:06:17.052Z,13.77
2022-11-23T18:08:44.576Z,9.90
2022-11-23T18:11:11.265Z,12.63
2022-11-23T18:13:38.779Z,14.02
2022-11-23T18:16:06.400Z,14.32
2022-11-23T18:18:33.288Z,13.82
2022-11-23T18:21:01.339Z,12.27
2022-11-23T18:23:28.913Z,16.05
2022-11-23T18:26:00.350Z,11.15
2022-11-23T18:28:27.677Z,13.50
2022-11-23T18:30:55.180Z,16.10
2022-11-23T18:33:22.270Z,14.75
2022-11-23T18:35:49.099Z,14.20
2022-11-23T18:38:16.158Z,10.65
2022-11-23T18:40:43.444Z,11.40
2022-11-23T18:43:11.828Z,14.23
2022-11-23T18:45:38.806Z,12.45
2022-11-23T18:48:07.844Z,12.07
2022-11-23T18:50:35.745Z,17.85
2022-11-23T18:53:02.515Z,10.27
2022-11-23T18:55:29.081Z,13.43
2022-11-23T18:57:56.161Z,17.52
2022-11-23T19:00:22.867Z,16.08
2022-11-23T19:02:57.897Z,13.13
2022-11-23T19:05:26.624Z,12.27
2022-11-23T19:07:53.364Z,13.17
2022-11-23T19:10:20.015Z,12.35
2022-11-23T19:12:48.116Z,16.45
2022-11-23T19:15:15.011Z,9.85
2022-11-23T19:17:45.190Z,12.95
2022-11-23T19:20:12.042Z,11.55
2022-11-23T19:22:39.490Z,12.60
2022-11-23T19:25:07.089Z,9.82
2022-11-23T19:27:38.216Z,12.30
2022-11-23T19:30:08.797Z,15.75
2022-11-23T19:32:36.362Z,13.90
2022-11-23T19:35:04.048Z,15.60
2022-11-23T19:37:30.960Z,14.25
2022-11-23T19:39:57.580Z,13.75
2022-11-23T19:42:24.253Z,10.18
2022-11-23T19:44:51.108Z,13.90
2022-11-23T19:47:22.766Z,13.30
2022-11-23T19:49:49.897Z,17.77
2022-11-23T19:52:16.612Z,14.65
2022-11-23T19:54:43.325Z,15.00
2022-11-23T19:57:10.533Z,12.73
2022-11-23T19:59:37.146Z,13.60
2022-11-23T20:02:05.436Z,13.40
2022-11-23T20:04:32.358Z,13.15
2022-11-23T20:06:59.044Z,13.40
2022-11-23T20:09:27.647Z,10.27
2022-11-23T20:11:54.567Z,12.77
2022-11-23T20:14:21.205Z,11.60
2022-11-23T20:16:48.337Z,11.93
2022-11-23T20:19:15.013Z,10.20
2022-11-23T20:21:41.694Z,8.00
2022-11-23T20:24:12.997Z,8.18
2022-11-23T20:26:40.952Z,15.30
2022-11-23T20:29:08.725Z,13.82
2022-11-23T20:31:36.558Z,10.65
2022-11-23T20:34:07.021Z,12.18
2022-11-23T20:36:37.564Z,10.32
2022-11-23T20:39:06.692Z,9.25
2022-11-23T20:41:35.187Z,10.60
2022-11-23T20:44:03.239Z,11.45
2022-11-23T20:46:59.979Z,9.85
2022-11-23T20:49:18.142Z,11.10
2022-11-23T20:51:44.678Z,11.25
2022-11-23T20:54:11.323Z,17.08
2022-11-23T20:56:39.470Z,8.13
2022-11-23T20:59:06.271Z,11.43
2022-11-23T21:01:33.222Z,6.47
2022-11-23T21:04:00.390Z,15.93
2022-11-23T21:06:28.211Z,8.90
2022-11-23T21:08:55.382Z,10.30
2022-11-23T21:11:43.875Z,10.02
2022-11-23T21:14:17.937Z,8.85
2022-11-23T21:16:55.592Z,11.30
2022-11-23T21:19:34.074Z,8.00
2022-11-23T21:22:11.905Z,7.68
2022-11-23T21:24:42.512Z,8.10
2022-11-23T21:27:13.476Z,6.55
2022-11-23T21:29:40.368Z,6.25
2022-11-23T21:32:07.206Z,8.23
2022-11-23T21:34:34.645Z,5.28
2022-11-23T21:37:01.825Z,7.90
2022-11-23T21:39:31.414Z,4.80
2022-11-23T21:41:58.281Z,2.72
2022-11-23T21:44:25.649Z,5.82
2022-11-23T21:46:52.342Z,6.47
2022-11-23T21:49:19.325Z,4.22
2022-11-23T21:51:46.057Z,4.47
2022-11-23T21:54:16.568Z,4.65
2022-11-23T21:56:47.196Z,5.00
2022-11-23T21:59:14.360Z,4.38
2022-11-23T22:01:42.099Z,4.32
2022-11-23T22:04:15.252Z,6.55
2022-11-23T22:06:44.457Z,4.10
2022-11-23T22:09:12.584Z,3.50
2022-11-23T22:11:41.827Z,4.22
2022-11-23T22:14:11.761Z,3.85
2022-11-23T22:16:41.664Z,4.32
2022-11-23T22:19:11.991Z,5.05
2022-11-23T22:21:40.035Z,7.43
2022-11-23T22:24:10.393Z,5.30
2022-11-23T22:26:37.227Z,4.55
2022-11-23T22:29:06.610Z,4.10
2022-11-23T22:31:35.088Z,4.47
2022-11-23T22:34:06.557Z,4.32
2022-11-23T22:36:33.547Z,5.85
2022-11-23T22:39:02.731Z,8.43
2022-11-23T22:41:34.421Z,8.40
2022-11-23T22:44:01.233Z,6.50
2022-11-23T22:46:28.420Z,6.50
2022-11-23T22:48:59.231Z,5.45
2022-11-23T22:51:27.970Z,8.43
2022-11-23T22:53:55.930Z,5.50
2022-11-23T22:56:22.850Z,7.03
2022-11-23T22:58:49.743Z,6.80
2022-11-23T23:01:22.347Z,6.65
2022-11-23T23:03:53.390Z,7.43
2022-11-23T23:06:21.849Z,5.60
2022-11-23T23:08:53.307Z,6.03
2022-11-23T23:11:21.131Z,9.93
2022-11-23T23:13:47.970Z,7.20
2022-11-23T23:16:14.868Z,7.38
2022-11-23T23:18:42.949Z,6.45
2022-11-23T23:21:15.029Z,9.65
2022-11-23T23:23:45.454Z,10.23
2022-11-23T23:26:13.573Z,6.57
2022-11-23T23:28:40.762Z,8.00
2022-11-23T23:31:09.967Z,10.23
2022-11-23T23:33:37.325Z,6.72
2022-11-23T23:36:09.445Z,9.57
2022-11-23T23:38:37.188Z,12.25
2022-11-23T23:41:05.509Z,7.40
2022-11-23T23:43:32.489Z,7.13
2022-11-23T23:46:01.491Z,9.05
2022-11-23T23:48:29.659Z,8.82
2022-11-23T23:50:56.625Z,7.18
2022-11-23T23:53:23.796Z,7.72
2022-11-23T23:55:58.205Z,6.82
2022-11-23T23:58:25.327Z,10.02
